Time;durP1;ratioP1;P1;durP2;ratioP2;P2;SDS_P1;SDS_P2;PMS_P1;PMS_P2;Temp;Humidity;BMP_temperature;BMP_pressure;BME280_temperature;BME280_humidity;BME280_pressure;Samples;Min_cycle;Max_cycle;Signal;HPM_P1;HPM_P2
2023/05/09 09:18:39;;;;;;;3.50;1.98;;;;;;;24.09;42.87;101108.09;2118838;27;20475;-78
2023/05/09 09:20:07;;;;;;;4.65;1.80;;;;;;;24.16;43.67;101117.69;2107987;28;20054;-78
2023/05/09 09:21:32;;;;;;;3.40;1.50;;;;;;;24.20;43.52;101114.00;2113655;28;20043;-80
2023/05/09 09:22:59;;;;;;;3.83;1.50;;;;;;;24.22;43.04;101110.31;2109556;28;20182;-78
2023/05/09 09:24:23;;;;;;;3.10;1.65;;;;;;;24.28;43.38;101111.94;2115085;28;20051;-78
2023/05/09 09:25:46;;;;;;;4.15;1.80;;;;;;;24.34;43.23;101117.13;2112034;28;20496;-81
2023/05/09 09:27:09;;;;;;;4.25;1.80;;;;;;;24.36;42.88;101109.81;2112942;28;20246;-78
2023/05/09 09:28:31;;;;;;;2.95;1.42;;;;;;;24.43;43.19;101108.66;2117630;28;20054;-78
2023/05/09 09:29:53;;;;;;;5.28;1.70;;;;;;;24.53;42.84;101114.63;2116021;28;20054;-78
2023/05/09 09:31:23;;;;;;;2.72;1.40;;;;;;;24.63;42.88;101107.94;2113844;28;20059;-78
2023/05/09 09:32:45;;;;;;;3.38;1.67;;;;;;;24.74;43.27;101121.06;2116068;28;20039;-78
2023/05/09 09:34:09;;;;;;;5.43;1.80;;;;;;;24.82;42.29;101108.13;2114086;28;20104;-78
2023/05/09 09:35:39;;;;;;;5.88;1.50;;;;;;;24.91;42.29;101106.00;2116075;28;20070;-77
2023/05/09 09:37:01;;;;;;;1.70;1.30;;;;;;;25.05;42.78;101107.31;2113741;28;20453;-77
2023/05/09 09:38:24;;;;;;;3.45;1.60;;;;;;;25.16;42.84;101103.22;2114243;27;20062;-78
2023/05/09 09:39:54;;;;;;;4.78;1.67;;;;;;;25.25;42.34;101105.59;2108786;28;20086;-79
2023/05/09 09:41:17;;;;;;;3.00;1.42;;;;;;;25.35;42.44;101101.56;2111335;28;20074;-79
2023/05/09 09:42:43;;;;;;;3.10;1.58;;;;;;;25.52;43.10;101098.19;2116713;28;20585;-79
2023/05/09 09:44:08;;;;;;;5.88;1.98;;;;;;;25.71;42.91;101095.63;2116949;28;20104;-78
2023/05/09 09:45:31;;;;;;;3.17;1.60;;;;;;;25.85;42.40;101092.34;2119453;28;20514;-78
2023/05/09 09:46:55;;;;;;;4.55;1.30;;;;;;;25.99;42.02;101093.50;2116636;28;20095;-78
2023/05/09 09:48:18;;;;;;;5.38;1.90;;;;;;;26.10;40.91;101093.94;2113781;27;20321;-78
2023/05/09 09:49:46;;;;;;;4.13;1.48;;;;;;;26.21;40.74;101096.16;2117705;28;20503;-79
2023/05/09 09:51:10;;;;;;;2.60;1.33;;;;;;;26.29;40.92;101098.59;2118328;28;20043;-79
2023/05/09 09:52:32;;;;;;;3.10;1.20;;;;;;;26.33;40.96;101092.97;2116788;27;20043;-80
2023/05/09 09:53:55;;;;;;;4.85;1.45;;;;;;;26.35;40.84;101090.19;2115359;28;20058;-80
2023/05/09 09:55:17;;;;;;;2.80;1.20;;;;;;;26.35;40.78;101092.91;2115755;28;20143;-80
2023/05/09 09:56:41;;;;;;;2.53;1.20;;;;;;;26.36;40.43;101089.25;2124171;27;20047;-80
2023/05/09 09:58:03;;;;;;;4.85;1.58;;;;;;;26.34;40.09;101085.72;2116189;28;20043;-80
2023/05/09 09:59:27;;;;;;;2.20;1.13;;;;;;;26.24;39.89;101085.25;2114548;28;20058;-80
2023/05/09 10:01:04;;;;;;;4.80;1.40;;;;;;;26.20;40.70;101084.47;2115223;28;20047;-80
2023/05/09 10:02:27;;;;;;;6.50;1.35;;;;;;;26.20;40.53;101081.75;2112358;28;20059;-80
2023/05/09 10:03:50;;;;;;;4.22;1.73;;;;;;;26.26;39.91;101072.50;2113693;28;20550;-80
2023/05/09 10:05:19;;;;;;;6.93;1.52;;;;;;;26.40;39.07;101069.19;2115721;28;20047;-80
2023/05/09 10:06:52;;;;;;;5.05;1.42;;;;;;;26.55;38.47;101069.38;2117918;28;20382;-80
2023/05/09 10:08:14;;;;;;;2.67;1.45;;;;;;;26.73;38.41;101062.22;2122768;27;20537;-80
2023/05/09 10:09:37;;;;;;;3.67;1.40;;;;;;;26.86;38.47;101071.56;2118585;28;20035;-80
2023/05/09 10:11:00;;;;;;;3.95;1.50;;;;;;;26.88;38.54;101064.25;2117449;28;20470;-80
2023/05/09 10:12:23;;;;;;;3.13;1.30;;;;;;;27.01;39.07;101069.09;2113582;28;20046;-80
2023/05/09 10:13:45;;;;;;;3.22;1.40;;;;;;;27.14;38.96;101070.28;2114898;28;20062;-79
2023/05/09 10:15:10;;;;;;;4.10;1.30;;;;;;;27.27;38.74;101066.91;2113650;27;20043;-79
2023/05/09 10:16:33;;;;;;;4.53;1.50;;;;;;;27.38;38.15;101067.25;2115979;28;20048;-78
2023/05/09 10:17:58;;;;;;;1.42;1.00;;;;;;;27.52;37.47;101076.56;2116851;28;20059;-77
2023/05/09 10:19:22;;;;;;;3.53;1.30;;;;;;;27.52;37.61;101071.16;2117761;28;20044;-77
2023/05/09 10:20:47;;;;;;;4.38;1.38;;;;;;;27.60;38.59;101074.38;2109367;28;20036;-78
2023/05/09 10:22:11;;;;;;;3.65;1.50;;;;;;;27.64;39.04;101070.53;2117236;28;20511;-77
2023/05/09 10:23:37;;;;;;;2.42;1.17;;;;;;;27.65;38.91;101067.75;2117349;28;20073;-79
2023/05/09 10:25:03;;;;;;;3.88;1.55;;;;;;;27.53;39.17;101070.19;2109355;28;20647;-78
2023/05/09 10:26:30;;;;;;;4.60;1.55;;;;;;;27.28;39.48;101067.78;2118116;28;20047;-78
2023/05/09 10:27:54;;;;;;;3.25;1.30;;;;;;;27.04;39.92;101068.97;2111988;28;20082;-79
2023/05/09 10:29:23;;;;;;;2.58;1.30;;;;;;;26.77;40.45;101066.59;2109688;28;20086;-77
2023/05/09 10:30:56;;;;;;;2.72;1.50;;;;;;;26.55;41.11;101072.09;2111828;28;20058;-78
2023/05/09 10:32:24;;;;;;;4.32;1.80;;;;;;;26.33;41.74;101071.28;2112692;28;20044;-77
2023/05/09 10:33:48;;;;;;;6.80;1.80;;;;;;;26.14;42.23;101073.91;2114445;28;20108;-77
2023/05/09 10:35:12;;;;;;;4.80;1.95;;;;;;;26.04;42.68;101074.38;2100082;28;20118;-76
2023/05/09 10:36:37;;;;;;;3.83;1.60;;;;;;;25.97;43.30;101073.78;2108820;28;20075;-78
2023/05/09 10:38:01;;;;;;;4.20;1.77;;;;;;;25.92;43.94;101080.34;2120003;27;20093;-76
2023/05/09 10:39:24;;;;;;;6.43;1.98;;;;;;;25.86;44.55;101086.00;2110024;28;20052;-77
2023/05/09 10:40:47;;;;;;;4.57;1.63;;;;;;;25.80;44.79;101076.28;2111282;28;20040;-77
2023/05/09 10:42:10;;;;;;;4.35;1.80;;;;;;;25.73;45.40;101077.53;2111755;28;20051;-78
2023/05/09 10:43:33;;;;;;;5.30;2.28;;;;;;;25.68;45.71;101069.59;2104108;28;20071;-76
2023/05/09 10:44:56;;;;;;;5.07;1.88;;;;;;;25.72;46.72;101065.81;2109208;28;20047;-78
2023/05/09 10:46:19;;;;;;;4.32;1.67;;;;;;;25.80;46.33;101070.88;2112027;28;20098;-78
2023/05/09 10:47:45;;;;;;;3.70;1.60;;;;;;;25.92;46.24;101066.81;2103081;28;20054;-77
2023/05/09 10:49:08;;;;;;;5.57;1.60;;;;;;;26.08;45.93;101071.47;2109142;28;20082;-77
2023/05/09 10:50:31;;;;;;;4.78;1.38;;;;;;;26.29;45.44;101071.50;2109727;28;20098;-78
2023/05/09 10:51:55;;;;;;;4.13;1.40;;;;;;;26.47;43.99;101066.13;2103672;28;20044;-77
2023/05/09 10:53:17;;;;;;;3.08;1.45;;;;;;;26.63;43.65;101071.75;2108377;28;20039;-78
2023/05/09 10:54:40;;;;;;;3.85;1.60;;;;;;;26.71;43.03;101069.56;2102915;28;20048;-85
2023/05/09 10:56:03;;;;;;;3.42;1.60;;;;;;;26.65;43.31;101059.00;2111463;28;20055;-72
2023/05/09 10:57:26;;;;;;;4.53;1.48;;;;;;;26.69;43.40;101062.47;2110885;28;20507;-71
2023/05/09 10:58:49;;;;;;;3.92;1.50;;;;;;;26.75;42.43;101068.47;2113810;28;20051;-70
2023/05/09 11:00:13;;;;;;;4.93;2.13;;;;;;;26.74;41.74;101065.81;2107112;28;20074;-71
2023/05/09 11:01:37;;;;;;;5.53;1.70;;;;;;;26.71;41.20;101061.44;2108578;28;20458;-71
2023/05/09 11:03:09;;;;;;;4.90;1.55;;;;;;;26.69;41.24;101067.88;2112030;28;20067;-71
2023/05/09 11:04:32;;;;;;;6.13;1.60;;;;;;;26.59;41.02;101068.28;2110328;27;20050;-70
2023/05/09 11:05:56;;;;;;;5.15;1.50;;;;;;;26.58;40.80;101058.41;2106053;27;20052;-70
2023/05/09 11:07:40;;;;;;;2.35;1.25;;;;;;;26.69;41.05;101057.91;2104724;28;20478;-70
2023/05/09 11:09:24;;;;;;;3.88;1.35;;;;;;;26.95;40.85;101068.44;2111212;28;20126;-70
2023/05/09 11:10:47;;;;;;;2.63;1.35;;;;;;;27.10;40.58;101061.44;2105690;28;20066;-70
2023/05/09 11:12:13;;;;;;;3.03;1.65;;;;;;;27.19;40.92;101054.66;2118604;27;20458;-70
2023/05/09 11:13:37;;;;;;;3.17;1.42;;;;;;;27.27;41.00;101060.59;2105470;28;20048;-69
2023/05/09 11:15:06;;;;;;;4.70;1.65;;;;;;;27.32;40.64;101063.97;2107943;28;20098;-70
2023/05/09 11:16:29;;;;;;;6.22;1.40;;;;;;;27.32;40.50;101062.13;2103517;28;20174;-70
2023/05/09 11:18:04;;;;;;;8.95;1.92;;;;;;;27.25;39.71;101067.91;2101580;28;20036;-70
2023/05/09 11:19:39;;;;;;;5.60;2.30;;;;;;;27.20;39.50;101060.03;2112725;27;20044;-70
2023/05/09 11:21:08;;;;;;;4.85;1.70;;;;;;;27.06;39.84;101067.94;2113395;28;20047;-70
2023/05/09 11:22:40;;;;;;;4.72;1.48;;;;;;;26.87;41.58;101070.59;2105095;28;20681;-70
2023/05/09 11:24:16;;;;;;;3.33;1.63;;;;;;;26.63;43.47;101068.16;2103757;28;20500;-70
2023/05/09 11:25:40;;;;;;;4.93;1.73;;;;;;;26.52;45.30;101065.94;2106442;28;20051;-70
2023/05/09 11:27:06;;;;;;;4.22;1.63;;;;;;;26.51;46.28;101073.19;2110945;28;20082;-70
2023/05/09 11:28:30;;;;;;;3.65;1.90;;;;;;;26.54;46.83;101067.63;2109432;28;20656;-70
2023/05/09 11:29:54;;;;;;;4.20;1.67;;;;;;;26.50;46.89;101067.84;2107470;28;20047;-70
2023/05/09 11:31:18;;;;;;;5.15;1.63;;;;;;;26.52;48.13;101060.50;2098713;28;20153;-70
2023/05/09 11:32:46;;;;;;;4.72;1.85;;;;;;;26.61;48.27;101068.22;2099698;28;20032;-70
2023/05/09 11:34:10;;;;;;;5.82;1.60;;;;;;;26.67;47.19;101077.91;2109840;28;20542;-70
2023/05/09 11:35:33;;;;;;;3.88;1.58;;;;;;;26.61;47.06;101076.34;2107613;28;20102;-70
2023/05/09 11:37:09;;;;;;;6.10;1.70;;;;;;;26.65;46.28;101075.25;2107818;28;20052;-70
2023/05/09 11:38:41;;;;;;;3.42;1.45;;;;;;;26.72;45.96;101076.72;2098653;28;20098;-70
2023/05/09 11:40:04;;;;;;;3.75;1.42;;;;;;;26.71;46.22;101080.41;2106153;28;20051;-70
2023/05/09 11:41:27;;;;;;;4.85;1.73;;;;;;;26.71;46.26;101074.13;2101586;28;20531;-70
2023/05/09 11:42:52;;;;;;;4.22;1.58;;;;;;;26.82;46.27;101072.66;2091564;28;20060;-69
2023/05/09 11:44:16;;;;;;;3.55;1.83;;;;;;;26.98;46.54;101076.41;2102083;28;20035;-70
2023/05/09 11:45:40;;;;;;;4.18;1.83;;;;;;;27.13;46.42;101077.53;2106380;28;20483;-69
2023/05/09 11:47:03;;;;;;;4.53;1.50;;;;;;;27.26;47.00;101075.09;2110341;28;20163;-70
2023/05/09 11:48:25;;;;;;;3.33;1.63;;;;;;;27.33;47.86;101077.44;2102154;28;20079;-70
2023/05/09 11:49:49;;;;;;;4.18;1.50;;;;;;;27.37;48.26;101070.06;2109222;28;20480;-70
2023/05/09 11:51:17;;;;;;;5.15;1.42;;;;;;;27.44;47.95;101070.63;2109860;28;20142;-70
2023/05/09 11:52:41;;;;;;;3.67;1.60;;;;;;;27.41;47.65;101068.94;2103267;28;20040;-71
2023/05/09 11:54:05;;;;;;;4.43;1.50;;;;;;;27.38;48.09;101069.06;2101547;28;20067;-70
2023/05/09 11:55:28;;;;;;;2.58;1.63;;;;;;;27.28;47.59;101060.53;2104008;28;20126;-70
2023/05/09 11:56:51;;;;;;;3.53;1.92;;;;;;;27.20;47.77;101061.84;2106809;28;20514;-70
2023/05/09 11:58:14;;;;;;;3.70;1.63;;;;;;;27.14;47.30;101057.59;2105994;28;20499;-70
2023/05/09 11:59:38;;;;;;;3.92;1.85;;;;;;;27.14;47.56;101059.44;2108789;28;20097;-70
2023/05/09 12:01:00;;;;;;;3.28;1.65;;;;;;;27.13;48.35;101058.56;2109672;28;20939;-70
2023/05/09 12:02:23;;;;;;;2.83;1.60;;;;;;;27.12;49.55;101061.31;2102717;28;20048;-71
2023/05/09 12:03:45;;;;;;;3.92;1.77;;;;;;;27.07;50.02;101056.13;2104223;28;20173;-71
2023/05/09 12:05:10;;;;;;;3.53;1.80;;;;;;;27.06;50.52;101058.91;2107738;28;20123;-70
2023/05/09 12:06:33;;;;;;;3.83;1.70;;;;;;;27.05;50.14;101055.31;2098640;28;20256;-70
2023/05/09 12:07:56;;;;;;;7.05;2.00;;;;;;;26.98;50.45;101046.59;2097393;28;20044;-70
2023/05/09 12:09:21;;;;;;;3.22;1.67;;;;;;;26.94;50.54;101052.25;2109859;28;20040;-70
2023/05/09 12:10:44;;;;;;;6.65;2.30;;;;;;;26.77;50.87;101044.03;2111196;28;20051;-71
2023/05/09 12:12:11;;;;;;;4.00;1.98;;;;;;;26.64;52.21;101043.72;2101839;28;20058;-70
2023/05/09 12:13:34;;;;;;;4.60;2.30;;;;;;;26.56;52.57;101043.19;2103260;28;20036;-71
2023/05/09 12:14:56;;;;;;;5.30;2.25;;;;;;;26.53;53.16;101041.47;2094575;28;20569;-70
2023/05/09 12:16:19;;;;;;;6.55;1.80;;;;;;;26.56;52.56;101038.66;2093345;28;20183;-70
2023/05/09 12:17:43;;;;;;;4.60;1.80;;;;;;;26.55;51.83;101036.00;2107505;28;20073;-70
2023/05/09 12:19:10;;;;;;;5.15;1.73;;;;;;;26.58;51.69;101041.28;2104460;28;20040;-70
2023/05/09 12:20:47;;;;;;;4.15;2.00;;;;;;;26.57;50.87;101039.53;2102221;28;20130;-70
2023/05/09 12:22:09;;;;;;;4.95;1.73;;;;;;;26.54;49.24;101039.66;2119669;27;20054;-71
2023/05/09 12:23:35;;;;;;;3.72;1.80;;;;;;;26.48;47.69;101040.81;2108432;28;20143;-70
2023/05/09 12:25:02;;;;;;;5.47;2.08;;;;;;;26.45;47.86;101034.69;2105061;28;20086;-70
2023/05/09 12:26:25;;;;;;;4.70;1.90;;;;;;;26.46;48.08;101039.13;2109171;28;20035;-70
2023/05/09 12:27:48;;;;;;;6.28;1.95;;;;;;;26.40;48.05;101040.28;2101640;28;20442;-70
2023/05/09 12:29:11;;;;;;;5.05;1.77;;;;;;;26.32;48.04;101039.75;2107745;28;20039;-70
2023/05/09 12:30:34;;;;;;;3.92;2.00;;;;;;;26.21;48.82;101042.03;2111209;28;20055;-70
2023/05/09 12:32:00;;;;;;;4.45;2.10;;;;;;;26.12;50.90;101045.16;2110875;28;20693;-70
2023/05/09 12:33:23;;;;;;;5.13;2.45;;;;;;;26.05;52.03;101043.69;2110519;28;20047;-70
2023/05/09 12:34:47;;;;;;;5.70;2.30;;;;;;;25.99;53.65;101042.09;2104583;28;20094;-70
2023/05/09 12:36:14;;;;;;;3.67;2.03;;;;;;;25.93;57.90;101052.34;2108489;28;20059;-70
2023/05/09 12:37:36;;;;;;;3.67;2.15;;;;;;;25.84;61.55;101050.00;2111271;28;20054;-70
2023/05/09 12:38:59;;;;;;;6.47;2.67;;;;;;;25.77;63.88;101052.09;2102255;28;20044;-70
2023/05/09 12:40:24;;;;;;;4.50;2.13;;;;;;;25.69;66.61;101046.13;2108113;28;20454;-70
2023/05/09 12:41:46;;;;;;;5.07;2.25;;;;;;;25.66;69.59;101039.03;2110171;28;20066;-70
2023/05/09 12:43:09;;;;;;;7.07;2.20;;;;;;;25.70;71.93;101047.88;2110683;28;20068;-71
2023/05/09 12:44:31;;;;;;;3.55;2.30;;;;;;;25.76;74.88;101039.50;2104907;28;20040;-70
2023/05/09 12:45:53;;;;;;;5.63;2.40;;;;;;;25.86;76.33;101045.44;2110352;28;20422;-70
2023/05/09 12:47:16;;;;;;;5.57;2.70;;;;;;;25.88;76.48;101048.91;2110660;28;20047;-70
2023/05/09 12:48:39;;;;;;;5.35;2.70;;;;;;;25.93;76.16;101052.34;2110577;28;20039;-70
2023/05/09 12:50:03;;;;;;;6.05;2.50;;;;;;;25.94;76.90;101051.34;2110577;28;20059;-70
2023/05/09 12:51:25;;;;;;;6.25;2.67;;;;;;;25.87;78.12;101050.75;2110982;28;20040;-70
2023/05/09 12:52:51;;;;;;;3.83;2.35;;;;;;;25.88;77.71;101049.81;2110481;28;20051;-70
2023/05/09 12:54:13;;;;;;;5.57;2.80;;;;;;;25.81;79.77;101048.31;2111024;28;20055;-70
2023/05/09 12:55:41;;;;;;;4.10;2.30;;;;;;;25.80;80.90;101038.41;2110682;28;20047;-71
2023/05/09 12:57:04;;;;;;;6.05;2.33;;;;;;;25.84;80.16;101045.47;2106666;28;20567;-70
2023/05/09 12:58:30;;;;;;;8.05;2.53;;;;;;;25.89;77.42;101046.16;2109544;28;20048;-70
2023/05/09 12:59:58;;;;;;;5.60;2.70;;;;;;;25.83;74.81;101046.44;2101901;28;20044;-70
2023/05/09 13:01:22;;;;;;;5.80;2.20;;;;;;;25.84;75.36;101039.19;2109516;28;20055;-70
2023/05/09 13:02:44;;;;;;;6.25;2.10;;;;;;;25.79;70.11;101037.56;2110379;28;20047;-70
2023/05/09 13:04:07;;;;;;;4.68;2.30;;;;;;;25.81;67.68;101042.91;2110253;28;20055;-70
2023/05/09 13:05:32;;;;;;;6.95;2.25;;;;;;;25.87;70.87;101033.63;2110086;28;20032;-71
2023/05/09 13:06:56;;;;;;;5.28;2.70;;;;;;;25.99;73.80;101033.13;2109397;28;20084;-70
2023/05/09 13:08:22;;;;;;;8.00;3.03;;;;;;;26.15;74.95;101029.66;2112530;28;20058;-70
2023/05/09 13:09:57;;;;;;;4.07;2.25;;;;;;;26.31;75.29;101023.59;2110749;28;20051;-70
2023/05/09 13:11:21;;;;;;;5.93;2.47;;;;;;;26.29;77.32;101025.47;2112347;28;20059;-70
2023/05/09 13:12:47;;;;;;;3.58;2.40;;;;;;;26.31;78.73;101018.19;2107609;28;20040;-70
2023/05/09 13:14:09;;;;;;;5.97;2.75;;;;;;;26.36;77.84;101022.44;2102753;28;20052;-70
2023/05/09 13:15:32;;;;;;;6.22;3.00;;;;;;;26.37;75.50;101015.19;2093913;28;20049;-70
2023/05/09 13:16:54;;;;;;;6.50;2.53;;;;;;;26.32;74.60;101006.41;2099302;28;20495;-70
2023/05/09 13:18:17;;;;;;;6.13;2.58;;;;;;;26.36;73.98;101002.59;2104117;28;20043;-70
2023/05/09 13:19:40;;;;;;;16.90;5.07;;;;;;;26.49;72.84;101009.22;2110283;28;20039;-70
2023/05/09 13:21:02;;;;;;;6.75;2.75;;;;;;;26.65;70.20;101007.53;2110508;28;20893;-70
2023/05/09 13:22:25;;;;;;;4.68;2.50;;;;;;;26.81;66.81;101002.28;2110751;28;20047;-70
2023/05/09 13:23:48;;;;;;;6.25;2.15;;;;;;;26.84;64.76;101000.31;2109255;28;20056;-70
2023/05/09 13:25:11;;;;;;;4.65;2.35;;;;;;;26.85;62.03;100995.75;2117494;28;20039;-70
2023/05/09 13:26:35;;;;;;;6.50;2.30;;;;;;;26.87;59.73;100994.72;2105004;28;20050;-71
2023/05/09 13:27:57;;;;;;;5.25;2.70;;;;;;;26.88;58.33;100985.66;2101281;28;20489;-70
2023/05/09 13:29:20;;;;;;;5.70;2.22;;;;;;;26.89;57.12;100986.56;2104533;28;20048;-70
2023/05/09 13:30:42;;;;;;;3.78;1.98;;;;;;;26.85;57.00;100979.47;2104864;28;20572;-70
2023/05/09 13:32:05;;;;;;;5.70;2.30;;;;;;;26.79;56.96;100977.06;2101889;28;20052;-70
2023/05/09 13:33:28;;;;;;;4.47;2.20;;;;;;;26.78;56.60;100978.91;2104613;28;20051;-70
2023/05/09 13:34:50;;;;;;;4.82;2.30;;;;;;;26.75;56.32;100984.47;2094549;28;20056;-70
2023/05/09 13:36:12;;;;;;;3.30;2.00;;;;;;;26.76;57.34;100982.66;2099523;28;20044;-70
2023/05/09 13:37:35;;;;;;;5.68;2.60;;;;;;;26.76;59.54;100985.38;2096291;28;20041;-70
2023/05/09 13:38:58;;;;;;;5.72;2.15;;;;;;;26.77;61.24;100988.00;2103236;28;20065;-70
2023/05/09 13:40:21;;;;;;;6.20;2.65;;;;;;;26.73;62.72;100978.25;2110209;28;20047;-70
2023/05/09 13:41:44;;;;;;;4.03;2.47;;;;;;;26.64;65.71;100983.25;2110635;28;20147;-70
2023/05/09 13:43:07;;;;;;;6.90;2.80;;;;;;;26.43;67.71;100986.00;2110478;28;20100;-70
2023/05/09 13:44:30;;;;;;;5.68;2.67;;;;;;;26.23;68.60;100982.41;2110265;28;20431;-70
2023/05/09 13:45:52;;;;;;;4.60;2.20;;;;;;;26.11;69.53;100989.28;2104852;28;20048;-70
2023/05/09 13:47:14;;;;;;;7.80;2.22;;;;;;;26.11;69.27;100987.44;2101925;28;20048;-71
2023/05/09 13:48:37;;;;;;;5.03;2.58;;;;;;;26.11;68.42;100987.44;2107735;28;20054;-70
2023/05/09 13:49:59;;;;;;;3.30;2.00;;;;;;;26.11;68.94;100981.16;2109412;28;20043;-70
2023/05/09 13:51:22;;;;;;;7.70;3.20;;;;;;;26.12;70.21;100978.34;2113159;28;20052;-70
2023/05/09 13:52:45;;;;;;;4.47;2.80;;;;;;;26.14;72.07;100975.59;2110024;28;20475;-71
2023/05/09 13:54:11;;;;;;;8.40;3.20;;;;;;;26.11;73.64;100968.50;2110166;28;20044;-70
2023/05/09 13:55:34;;;;;;;4.97;2.50;;;;;;;26.08;75.33;100978.56;2110848;28;20131;-70
2023/05/09 13:56:59;;;;;;;5.60;2.55;;;;;;;26.06;75.96;100975.03;2112862;28;20087;-70
2023/05/09 13:58:21;;;;;;;5.78;2.72;;;;;;;26.02;77.86;100976.13;2110646;28;20051;-70
2023/05/09 13:59:43;;;;;;;6.25;2.95;;;;;;;25.99;79.88;100973.59;2108972;28;20130;-70
2023/05/09 14:01:06;;;;;;;3.47;2.38;;;;;;;25.99;80.65;100979.00;2110224;28;20079;-70
2023/05/09 14:02:28;;;;;;;5.97;2.60;;;;;;;25.92;81.71;100975.69;2110434;28;20462;-70
2023/05/09 14:03:51;;;;;;;5.68;2.83;;;;;;;25.84;81.59;100976.97;2110346;28;20097;-70
2023/05/09 14:05:13;;;;;;;8.60;2.85;;;;;;;25.78;82.54;100973.59;2110155;28;20043;-70
2023/05/09 14:06:36;;;;;;;5.72;2.60;;;;;;;25.74;82.76;100971.06;2107095;28;20051;-71
2023/05/09 14:07:58;;;;;;;6.72;3.10;;;;;;;25.68;81.69;100974.03;2112021;28;20055;-70
2023/05/09 14:09:21;;;;;;;4.75;2.85;;;;;;;25.64;80.82;100976.00;2111698;28;20047;-70
2023/05/09 14:10:44;;;;;;;9.45;3.65;;;;;;;25.61;81.10;100977.94;2111916;28;20090;-70
2023/05/09 14:12:08;;;;;;;17.98;5.40;;;;;;;25.56;81.39;100975.41;2112068;28;20205;-70
2023/05/09 14:13:31;;;;;;;8.68;3.72;;;;;;;25.52;82.27;100981.91;2111572;28;20455;-70
2023/05/09 14:14:53;;;;;;;6.72;3.15;;;;;;;25.49;82.73;100981.16;2111922;28;20078;-70
2023/05/09 14:16:15;;;;;;;18.77;5.20;;;;;;;25.46;84.00;100981.28;2101919;28;20054;-70
2023/05/09 14:17:38;;;;;;;8.10;3.03;;;;;;;25.42;84.22;100980.53;2102933;28;20039;-70
2023/05/09 14:19:00;;;;;;;9.43;3.28;;;;;;;25.36;84.37;100981.66;2103589;28;20059;-71
2023/05/09 14:20:23;;;;;;;5.82;2.83;;;;;;;25.37;84.96;100978.03;2103265;28;20044;-70
2023/05/09 14:21:46;;;;;;;4.80;2.75;;;;;;;25.38;85.34;100985.19;2103293;28;20051;-70
2023/05/09 14:23:08;;;;;;;7.70;2.90;;;;;;;25.27;85.08;100998.25;2103617;28;20048;-70
2023/05/09 14:24:32;;;;;;;5.05;2.50;;;;;;;25.10;87.39;100989.97;2106035;28;20487;-70
2023/05/09 14:25:54;;;;;;;5.18;2.58;;;;;;;25.02;88.92;100993.00;2103977;28;20142;-70
2023/05/09 14:27:18;;;;;;;10.40;3.60;;;;;;;24.99;91.32;100994.94;2111403;28;20365;-70
2023/05/09 14:28:41;;;;;;;6.88;3.10;;;;;;;24.93;93.44;100992.50;2105518;28;20047;-70
2023/05/09 14:30:03;;;;;;;6.47;2.83;;;;;;;24.81;93.91;100992.94;2103129;28;20063;-70
2023/05/09 14:31:26;;;;;;;6.88;3.10;;;;;;;24.73;92.56;100989.66;2103462;28;20048;-70
2023/05/09 14:32:48;;;;;;;6.63;2.85;;;;;;;24.65;91.37;100989.06;2103257;28;20040;-70
2023/05/09 14:34:11;;;;;;;6.18;3.03;;;;;;;24.61;91.09;100997.28;2102936;28;20071;-70
2023/05/09 14:35:33;;;;;;;6.75;3.35;;;;;;;24.57;91.79;100998.34;2111644;28;20040;-70
2023/05/09 14:36:55;;;;;;;6.70;3.38;;;;;;;24.50;93.75;101002.22;2105715;28;20143;-70
2023/05/09 14:38:18;;;;;;;6.78;3.28;;;;;;;24.43;94.06;101002.50;2103304;28;20048;-70
2023/05/09 14:39:41;;;;;;;7.65;3.47;;;;;;;24.32;94.06;101002.03;2103232;28;20093;-70
2023/05/09 14:41:05;;;;;;;5.43;2.92;;;;;;;24.25;95.17;100998.69;2103188;28;20439;-70
2023/05/09 14:42:29;;;;;;;4.88;3.25;;;;;;;24.21;96.32;100997.06;2110648;28;20054;-69
2023/05/09 14:43:52;;;;;;;5.95;3.53;;;;;;;24.18;97.59;100994.41;2111913;28;20055;-71
2023/05/09 14:45:14;;;;;;;5.10;3.22;;;;;;;24.06;99.34;101001.16;2102841;28;20080;-70
2023/05/09 14:46:36;;;;;;;6.68;3.70;;;;;;;23.92;100.00;100994.47;2094855;28;20052;-70
2023/05/09 14:48:00;;;;;;;7.70;3.85;;;;;;;23.80;100.00;100995.81;2100600;28;20077;-70
2023/05/09 14:49:22;;;;;;;5.30;3.10;;;;;;;23.77;100.00;100994.09;2111668;28;20520;-70
2023/05/09 14:50:44;;;;;;;5.30;3.33;;;;;;;23.77;100.00;100996.78;2105749;28;20040;-70
2023/05/09 14:52:07;;;;;;;6.25;3.50;;;;;;;23.84;100.00;101000.13;2103309;28;20527;-70
2023/05/09 14:53:29;;;;;;;6.45;3.83;;;;;;;23.90;100.00;101004.44;2105625;28;20055;-70
2023/05/09 14:54:52;;;;;;;8.48;3.90;;;;;;;23.89;100.00;101002.69;2111384;28;20044;-70
2023/05/09 14:56:13;;;;;;;8.18;3.55;;;;;;;23.86;100.00;101000.97;2105732;28;20051;-70
2023/05/09 14:57:37;;;;;;;8.15;4.20;;;;;;;23.82;100.00;100997.53;2111067;28;20047;-70
2023/05/09 14:58:59;;;;;;;5.60;3.30;;;;;;;23.80;100.00;100994.00;2103291;28;20047;-70
2023/05/09 15:00:22;;;;;;;10.35;3.40;;;;;;;23.82;100.00;101005.59;2106598;28;20047;-70
2023/05/09 15:01:45;;;;;;;6.15;3.20;;;;;;;23.90;100.00;100996.34;2102529;28;20149;-70
2023/05/09 15:03:08;;;;;;;6.78;3.53;;;;;;;23.97;100.00;100997.88;2109070;28;20075;-70
2023/05/09 15:04:31;;;;;;;7.72;3.78;;;;;;;24.05;100.00;100995.78;2111325;28;20039;-70
2023/05/09 15:05:52;;;;;;;7.60;3.90;;;;;;;24.11;100.00;100992.88;2108135;28;20055;-70
2023/05/09 15:07:14;;;;;;;6.95;3.50;;;;;;;24.10;100.00;100996.50;2112852;28;20390;-71
2023/05/09 15:08:38;;;;;;;9.43;3.60;;;;;;;23.93;100.00;100988.16;2108887;28;20093;-70
2023/05/09 15:10:00;;;;;;;6.25;3.63;;;;;;;23.88;100.00;100992.84;2110827;28;20588;-70
2023/05/09 15:11:22;;;;;;;7.47;3.75;;;;;;;23.93;100.00;100998.94;2111388;28;20054;-70
2023/05/09 15:12:46;;;;;;;8.52;4.00;;;;;;;23.99;100.00;100994.22;2101288;28;20116;-70
2023/05/09 15:14:09;;;;;;;7.65;3.40;;;;;;;23.99;100.00;100991.50;2102970;28;20399;-70
2023/05/09 15:15:31;;;;;;;6.00;3.40;;;;;;;23.97;100.00;100992.50;2102780;28;20117;-70
2023/05/09 15:16:55;;;;;;;6.53;3.20;;;;;;;23.92;100.00;100989.09;2102625;28;20056;-70
2023/05/09 15:18:18;;;;;;;4.60;3.03;;;;;;;23.85;100.00;100988.41;2103709;28;20050;-70
2023/05/09 15:19:41;;;;;;;7.03;3.45;;;;;;;23.79;100.00;100984.13;2108311;28;20040;-70
2023/05/09 15:21:03;;;;;;;6.60;3.53;;;;;;;23.75;100.00;100982.50;2096917;28;20078;-70
2023/05/09 15:22:26;;;;;;;11.57;4.25;;;;;;;23.70;100.00;100984.44;2101691;28;20052;-70
2023/05/09 15:23:48;;;;;;;7.40;3.58;;;;;;;23.68;100.00;100978.25;2099364;28;20578;-70
2023/05/09 15:25:10;;;;;;;7.10;3.38;;;;;;;23.59;100.00;100977.66;2108407;28;20051;-70
2023/05/09 15:26:32;;;;;;;5.82;3.65;;;;;;;23.50;100.00;100976.16;2101660;28;20435;-70
2023/05/09 15:27:56;;;;;;;6.28;3.05;;;;;;;23.42;100.00;100972.84;2107511;28;20055;-70
2023/05/09 15:29:18;;;;;;;6.78;4.25;;;;;;;23.38;100.00;100977.44;2102532;28;20063;-70
2023/05/09 15:30:41;;;;;;;9.55;4.05;;;;;;;23.36;100.00;100973.94;2102140;28;20370;-70
2023/05/09 15:32:03;;;;;;;6.47;3.70;;;;;;;23.37;100.00;100978.34;2111316;28;20055;-70
2023/05/09 15:33:27;;;;;;;6.13;4.10;;;;;;;23.35;100.00;100984.75;2087840;28;20057;-69
2023/05/09 15:34:49;;;;;;;7.30;3.60;;;;;;;23.31;100.00;100986.66;2090586;28;20524;-70
2023/05/09 15:36:12;;;;;;;6.22;3.45;;;;;;;23.26;100.00;100982.34;2108053;28;20180;-69
2023/05/09 15:37:33;;;;;;;6.47;3.50;;;;;;;23.19;100.00;100978.09;2107210;28;20044;-70
2023/05/09 15:38:55;;;;;;;;;;;;;;;23.10;100.00;100986.50;2109930;28;20142;-70
2023/05/09 15:40:18;;;;;;;10.23;4.13;;;;;;;23.02;100.00;100987.63;2110992;28;19919;-70
2023/05/09 15:41:40;;;;;;;7.45;3.80;;;;;;;22.95;100.00;100991.44;2102469;28;20090;-69
2023/05/09 15:43:05;;;;;;;6.95;3.88;;;;;;;22.88;100.00;100981.78;2107690;28;20047;-70
2023/05/09 15:44:33;;;;;;;7.68;3.78;;;;;;;22.81;100.00;100988.28;2100204;28;20245;-70
2023/05/09 15:45:55;;;;;;;8.93;3.80;;;;;;;22.74;100.00;100992.09;2106179;28;20071;-70
2023/05/09 15:47:17;;;;;;;10.05;4.32;;;;;;;22.64;100.00;100994.13;2110113;28;20074;-70
2023/05/09 15:48:40;;;;;;;7.13;3.70;;;;;;;22.60;100.00;100994.28;2094412;28;20048;-70